sensor_id;sensor_type;location;lat;lon;timestamp;temperature;humidity
58413;DHT22;44209;52.952;6.790;2023-11-21T01:21:53;8.90;99.90
58413;DHT22;44209;52.952;6.790;2023-11-21T01:24:19;8.90;99.90
58413;DHT22;44209;52.952;6.790;2023-11-21T01:29:21;8.90;99.90
58413;DHT22;44209;52.952;6.790;2023-11-21T01:31:47;8.90;99.90
58413;DHT22;44209;52.952;6.790;2023-11-21T01:34:12;9.00;99.90
58413;DHT22;44209;52.952;6.790;2023-11-21T01:36:39;9.00;99.90
58413;DHT22;44209;52.952;6.790;2023-11-21T01:39:05;8.90;99.90
58413;DHT22;44209;52.952;6.790;2023-11-21T01:41:34;8.90;99.90
58413;DHT22;44209;52.952;6.790;2023-11-21T01:44:00;8.90;99.90
58413;DHT22;44209;52.952;6.790;2023-11-21T01:46:26;8.90;99.90
58413;DHT22;44209;52.952;6.790;2023-11-21T01:48:52;9.00;99.90
58413;DHT22;44209;52.952;6.790;2023-11-21T01:51:19;9.00;99.90
58413;DHT22;44209;52.952;6.790;2023-11-21T01:53:45;9.00;99.90
58413;DHT22;44209;52.952;6.790;2023-11-21T01:56:12;8.90;99.90
58413;DHT22;44209;52.952;6.790;2023-11-21T01:58:39;8.90;99.90
58413;DHT22;44209;52.952;6.790;2023-11-21T02:01:05;9.00;99.90
58413;DHT22;44209;52.952;6.790;2023-11-21T02:03:31;8.90;99.90
58413;DHT22;44209;52.952;6.790;2023-11-21T02:05:56;8.90;99.90
58413;DHT22;44209;52.952;6.790;2023-11-21T02:08:22;8.90;99.90
58413;DHT22;44209;52.952;6.790;2023-11-21T02:10:48;8.90;99.90
58413;DHT22;44209;52.952;6.790;2023-11-21T02:13:13;8.90;99.90
58413;DHT22;44209;52.952;6.790;2023-11-21T02:15:39;8.90;99.90
58413;DHT22;44209;52.952;6.790;2023-11-21T02:18:05;9.00;99.90
58413;DHT22;44209;52.952;6.790;2023-11-21T02:20:32;9.00;99.90
58413;DHT22;44209;52.952;6.790;2023-11-21T02:23:00;9.00;99.90
58413;DHT22;44209;52.952;6.790;2023-11-21T02:25:31;9.00;99.90
58413;DHT22;44209;52.952;6.790;2023-11-21T02:28:01;9.00;99.90
58413;DHT22;44209;52.952;6.790;2023-11-21T02:30:28;9.00;99.90
58413;DHT22;44209;52.952;6.790;2023-11-21T02:32:54;9.00;99.90
58413;DHT22;44209;52.952;6.790;2023-11-21T02:35:20;9.00;99.90
58413;DHT22;44209;52.952;6.790;2023-11-21T02:37:47;9.00;99.90
58413;DHT22;44209;52.952;6.790;2023-11-21T02:40:13;9.00;99.90
58413;DHT22;44209;52.952;6.790;2023-11-21T02:42:43;9.00;99.90
58413;DHT22;44209;52.952;6.790;2023-11-21T02:45:09;9.00;99.90
58413;DHT22;44209;52.952;6.790;2023-11-21T02:47:41;9.00;99.90
58413;DHT22;44209;52.952;6.790;2023-11-21T02:50:08;9.10;99.90
58413;DHT22;44209;52.952;6.790;2023-11-21T02:52:35;9.00;99.90
58413;DHT22;44209;52.952;6.790;2023-11-21T02:55:04;9.10;99.90
58413;DHT22;44209;52.952;6.790;2023-11-21T02:57:30;9.10;99.90
58413;DHT22;44209;52.952;6.790;2023-11-21T02:59:56;9.10;99.90
58413;DHT22;44209;52.952;6.790;2023-11-21T03:02:22;9.10;99.90
58413;DHT22;44209;52.952;6.790;2023-11-21T03:04:48;9.20;99.90
58413;DHT22;44209;52.952;6.790;2023-11-21T03:07:15;9.20;99.90
58413;DHT22;44209;52.952;6.790;2023-11-21T03:09:40;9.20;99.90
58413;DHT22;44209;52.952;6.790;2023-11-21T03:12:07;9.20;99.90
58413;DHT22;44209;52.952;6.790;2023-11-21T03:14:34;9.20;99.90
58413;DHT22;44209;52.952;6.790;2023-11-21T03:17:00;9.20;99.90
58413;DHT22;44209;52.952;6.790;2023-11-21T03:19:25;9.20;99.90
58413;DHT22;44209;52.952;6.790;2023-11-21T03:21:51;9.20;99.90
58413;DHT22;44209;52.952;6.790;2023-11-21T03:24:19;9.20;99.90
58413;DHT22;44209;52.952;6.790;2023-11-21T03:26:45;9.20;99.90
58413;DHT22;44209;52.952;6.790;2023-11-21T03:29:12;9.20;99.90
58413;DHT22;44209;52.952;6.790;2023-11-21T03:31:38;9.20;99.90
58413;DHT22;44209;52.952;6.790;2023-11-21T03:34:03;9.20;99.90
58413;DHT22;44209;52.952;6.790;2023-11-21T03:36:29;9.20;99.90
58413;DHT22;44209;52.952;6.790;2023-11-21T03:38:55;9.20;99.90
58413;DHT22;44209;52.952;6.790;2023-11-21T03:41:21;9.20;99.90
58413;DHT22;44209;52.952;6.790;2023-11-21T03:43:46;9.20;99.90
58413;DHT22;44209;52.952;6.790;2023-11-21T03:46:12;9.20;99.90
58413;DHT22;44209;52.952;6.790;2023-11-21T03:48:38;9.20;99.90
58413;DHT22;44209;52.952;6.790;2023-11-21T03:51:04;9.20;99.90
58413;DHT22;44209;52.952;6.790;2023-11-21T03:53:30;9.20;99.90
58413;DHT22;44209;52.952;6.790;2023-11-21T03:55:57;9.20;99.90
58413;DHT22;44209;52.952;6.790;2023-11-21T03:58:23;9.20;99.90
58413;DHT22;44209;52.952;6.790;2023-11-21T04:00:48;9.20;99.90
58413;DHT22;44209;52.952;6.790;2023-11-21T04:03:17;9.20;99.90
58413;DHT22;44209;52.952;6.790;2023-11-21T04:05:42;9.20;99.90
58413;DHT22;44209;52.952;6.790;2023-11-21T04:08:08;9.30;99.90
58413;DHT22;44209;52.952;6.790;2023-11-21T04:10:34;9.30;99.90
58413;DHT22;44209;52.952;6.790;2023-11-21T04:13:00;9.30;99.90
58413;DHT22;44209;52.952;6.790;2023-11-21T04:15:25;9.30;99.90
58413;DHT22;44209;52.952;6.790;2023-11-21T04:17:51;9.30;99.90
58413;DHT22;44209;52.952;6.790;2023-11-21T04:20:17;9.30;99.90
58413;DHT22;44209;52.952;6.790;2023-11-21T04:22:44;9.30;99.90
58413;DHT22;44209;52.952;6.790;2023-11-21T04:25:14;9.30;99.90
58413;DHT22;44209;52.952;6.790;2023-11-21T04:27:41;9.30;99.90
58413;DHT22;44209;52.952;6.790;2023-11-21T04:30:10;9.30;99.90
58413;DHT22;44209;52.952;6.790;2023-11-21T04:32:35;9.30;99.90
58413;DHT22;44209;52.952;6.790;2023-11-21T04:35:01;9.30;99.90
58413;DHT22;44209;52.952;6.790;2023-11-21T04:37:27;9.30;99.90
58413;DHT22;44209;52.952;6.790;2023-11-21T04:39:53;9.30;99.90
58413;DHT22;44209;52.952;6.790;2023-11-21T04:42:18;9.30;99.90
58413;DHT22;44209;52.952;6.790;2023-11-21T04:44:44;9.40;99.90
58413;DHT22;44209;52.952;6.790;2023-11-21T04:47:10;9.30;99.90
58413;DHT22;44209;52.952;6.790;2023-11-21T04:49:36;9.30;99.90
58413;DHT22;44209;52.952;6.790;2023-11-21T04:52:01;9.30;99.90
58413;DHT22;44209;52.952;6.790;2023-11-21T04:54:30;9.30;99.90
58413;DHT22;44209;52.952;6.790;2023-11-21T04:56:56;9.30;99.90
58413;DHT22;44209;52.952;6.790;2023-11-21T04:59:22;9.30;99.90
58413;DHT22;44209;52.952;6.790;2023-11-21T05:01:50;9.30;99.90
58413;DHT22;44209;52.952;6.790;2023-11-21T05:04:16;9.20;99.90
58413;DHT22;44209;52.952;6.790;2023-11-21T05:06:42;9.20;99.90
58413;DHT22;44209;52.952;6.790;2023-11-21T05:09:07;9.20;99.90
58413;DHT22;44209;52.952;6.790;2023-11-21T05:11:37;9.20;99.90
58413;DHT22;44209;52.952;6.790;2023-11-21T05:14:04;9.10;99.90
58413;DHT22;44209;52.952;6.790;2023-11-21T05:16:30;9.10;99.90
58413;DHT22;44209;52.952;6.790;2023-11-21T05:18:56;9.20;99.90
58413;DHT22;44209;52.952;6.790;2023-11-21T05:21:26;9.10;99.90
58413;DHT22;44209;52.952;6.790;2023-11-21T05:23:52;9.10;99.90
58413;DHT22;44209;52.952;6.790;2023-11-21T05:26:18;9.10;99.90
58413;DHT22;44209;52.952;6.790;2023-11-21T05:28:43;9.10;99.90
58413;DHT22;44209;52.952;6.790;2023-11-21T05:31:09;9.10;99.90
58413;DHT22;44209;52.952;6.790;2023-11-21T05:33:36;9.10;99.90
58413;DHT22;44209;52.952;6.790;2023-11-21T05:36:02;9.10;99.90
58413;DHT22;44209;52.952;6.790;2023-11-21T05:38:28;9.10;99.90
58413;DHT22;44209;52.952;6.790;2023-11-21T05:40:55;9.10;99.90
58413;DHT22;44209;52.952;6.790;2023-11-21T05:43:20;9.10;99.90
58413;DHT22;44209;52.952;6.790;2023-11-21T05:45:46;9.10;99.90
58413;DHT22;44209;52.952;6.790;2023-11-21T05:48:12;9.10;99.90
58413;DHT22;44209;52.952;6.790;2023-11-21T05:50:38;9.10;99.90
58413;DHT22;44209;52.952;6.790;2023-11-21T05:53:03;9.10;99.90
58413;DHT22;44209;52.952;6.790;2023-11-21T05:55:29;9.10;99.90
58413;DHT22;44209;52.952;6.790;2023-11-21T05:57:55;9.10;99.90
58413;DHT22;44209;52.952;6.790;2023-11-21T06:00:21;9.10;99.90
58413;DHT22;44209;52.952;6.790;2023-11-21T06:02:53;9.00;99.90
58413;DHT22;44209;52.952;6.790;2023-11-21T06:05:23;9.00;99.90
58413;DHT22;44209;52.952;6.790;2023-11-21T06:07:50;9.10;99.90
58413;DHT22;44209;52.952;6.790;2023-11-21T06:10:16;9.10;99.90
58413;DHT22;44209;52.952;6.790;2023-11-21T06:12:44;9.10;99.90
58413;DHT22;44209;52.952;6.790;2023-11-21T06:15:11;9.10;99.90
58413;DHT22;44209;52.952;6.790;2023-11-21T06:17:41;9.10;99.90
58413;DHT22;44209;52.952;6.790;2023-11-21T06:20:08;9.10;99.90
58413;DHT22;44209;52.952;6.790;2023-11-21T06:22:45;9.10;99.90
58413;DHT22;44209;52.952;6.790;2023-11-21T06:25:12;9.10;99.90
58413;DHT22;44209;52.952;6.790;2023-11-21T06:27:43;9.10;99.90
58413;DHT22;44209;52.952;6.790;2023-11-21T06:30:10;9.10;99.90
58413;DHT22;44209;52.952;6.790;2023-11-21T06:32:37;9.10;99.90
58413;DHT22;44209;52.952;6.790;2023-11-21T06:35:04;9.10;99.90
58413;DHT22;44209;52.952;6.790;2023-11-21T06:37:30;9.10;99.90
58413;DHT22;44209;52.952;6.790;2023-11-21T06:39:56;9.10;99.90
58413;DHT22;44209;52.952;6.790;2023-11-21T06:42:24;9.10;99.90
58413;DHT22;44209;52.952;6.790;2023-11-21T06:44:50;9.20;99.90
58413;DHT22;44209;52.952;6.790;2023-11-21T06:47:25;9.20;99.90
58413;DHT22;44209;52.952;6.790;2023-11-21T06:49:51;9.20;99.90
58413;DHT22;44209;52.952;6.790;2023-11-21T06:52:17;9.20;99.90
58413;DHT22;44209;52.952;6.790;2023-11-21T06:54:43;9.20;99.90
58413;DHT22;44209;52.952;6.790;2023-11-21T06:57:09;9.20;99.90
58413;DHT22;44209;52.952;6.790;2023-11-21T06:59:35;9.20;99.90
58413;DHT22;44209;52.952;6.790;2023-11-21T07:02:01;9.20;99.90
58413;DHT22;44209;52.952;6.790;2023-11-21T07:04:27;9.10;99.90
58413;DHT22;44209;52.952;6.790;2023-11-21T07:06:55;9.20;99.90
58413;DHT22;44209;52.952;6.790;2023-11-21T07:09:21;9.20;99.90
58413;DHT22;44209;52.952;6.790;2023-11-21T07:11:50;9.20;99.90
58413;DHT22;44209;52.952;6.790;2023-11-21T07:14:16;9.20;99.90
58413;DHT22;44209;52.952;6.790;2023-11-21T07:16:42;9.20;99.90
58413;DHT22;44209;52.952;6.790;2023-11-21T07:19:08;9.20;99.90
58413;DHT22;44209;52.952;6.790;2023-11-21T07:21:35;9.20;99.90
58413;DHT22;44209;52.952;6.790;2023-11-21T07:24:02;9.20;99.90
58413;DHT22;44209;52.952;6.790;2023-11-21T07:26:28;9.20;99.90
58413;DHT22;44209;52.952;6.790;2023-11-21T07:28:54;9.20;99.90
58413;DHT22;44209;52.952;6.790;2023-11-21T07:31:20;9.30;99.90
58413;DHT22;44209;52.952;6.790;2023-11-21T07:33:47;9.20;99.90
58413;DHT22;44209;52.952;6.790;2023-11-21T07:36:14;9.20;99.90
58413;DHT22;44209;52.952;6.790;2023-11-21T07:38:41;9.30;99.90
58413;DHT22;44209;52.952;6.790;2023-11-21T07:41:07;9.30;99.90
58413;DHT22;44209;52.952;6.790;2023-11-21T07:43:35;9.30;99.90
58413;DHT22;44209;52.952;6.790;2023-11-21T07:46:01;9.30;99.90
58413;DHT22;44209;52.952;6.790;2023-11-21T07:48:32;9.30;99.90
58413;DHT22;44209;52.952;6.790;2023-11-21T07:50:58;9.30;99.90
58413;DHT22;44209;52.952;6.790;2023-11-21T07:53:27;9.30;99.90
58413;DHT22;44209;52.952;6.790;2023-11-21T07:55:56;9.20;99.90
58413;DHT22;44209;52.952;6.790;2023-11-21T07:58:22;9.20;99.90
58413;DHT22;44209;52.952;6.790;2023-11-21T08:00:49;9.20;99.90
58413;DHT22;44209;52.952;6.790;2023-11-21T08:03:15;9.10;99.90
58413;DHT22;44209;52.952;6.790;2023-11-21T08:05:42;9.10;99.90
58413;DHT22;44209;52.952;6.790;2023-11-21T08:08:07;9.10;99.90
58413;DHT22;44209;52.952;6.790;2023-11-21T08:10:34;9.10;99.90
58413;DHT22;44209;52.952;6.790;2023-11-21T08:13:01;9.00;99.90
58413;DHT22;44209;52.952;6.790;2023-11-21T08:15:27;9.00;99.90
58413;DHT22;44209;52.952;6.790;2023-11-21T08:17:53;8.90;99.90
58413;DHT22;44209;52.952;6.790;2023-11-21T08:20:19;8.90;99.90
58413;DHT22;44209;52.952;6.790;2023-11-21T08:22:45;8.90;99.90
58413;DHT22;44209;52.952;6.790;2023-11-21T08:25:13;8.90;99.90
58413;DHT22;44209;52.952;6.790;2023-11-21T08:27:38;8.90;99.90
58413;DHT22;44209;52.952;6.790;2023-11-21T08:30:05;8.90;99.90
58413;DHT22;44209;52.952;6.790;2023-11-21T08:32:30;8.80;99.90
58413;DHT22;44209;52.952;6.790;2023-11-21T08:34:59;8.90;99.90
58413;DHT22;44209;52.952;6.790;2023-11-21T08:37:24;8.90;99.90
58413;DHT22;44209;52.952;6.790;2023-11-21T08:39:53;8.80;99.90
58413;DHT22;44209;52.952;6.790;2023-11-21T08:42:19;8.80;99.90
58413;DHT22;44209;52.952;6.790;2023-11-21T08:44:45;8.80;99.90
58413;DHT22;44209;52.952;6.790;2023-11-21T08:47:11;8.80;99.90
58413;DHT22;44209;52.952;6.790;2023-11-21T08:49:37;8.80;99.90
58413;DHT22;44209;52.952;6.790;2023-11-21T08:52:03;8.80;99.90
58413;DHT22;44209;52.952;6.790;2023-11-21T08:54:31;8.70;99.90
58413;DHT22;44209;52.952;6.790;2023-11-21T08:56:56;8.70;99.90
58413;DHT22;44209;52.952;6.790;2023-11-21T08:59:24;8.60;99.90
58413;DHT22;44209;52.952;6.790;2023-11-21T09:01:50;8.60;99.90
58413;DHT22;44209;52.952;6.790;2023-11-21T09:04:16;8.60;99.90
58413;DHT22;44209;52.952;6.790;2023-11-21T09:06:42;8.60;99.90
58413;DHT22;44209;52.952;6.790;2023-11-21T09:09:08;8.50;99.90
58413;DHT22;44209;52.952;6.790;2023-11-21T09:11:38;8.50;99.90
58413;DHT22;44209;52.952;6.790;2023-11-21T09:14:04;8.50;99.90
58413;DHT22;44209;52.952;6.790;2023-11-21T09:16:30;8.50;99.90
58413;DHT22;44209;52.952;6.790;2023-11-21T09:18:57;8.60;99.90
58413;DHT22;44209;52.952;6.790;2023-11-21T09:21:22;8.60;99.90
58413;DHT22;44209;52.952;6.790;2023-11-21T09:23:49;8.60;99.90
58413;DHT22;44209;52.952;6.790;2023-11-21T09:26:15;8.60;99.90
58413;DHT22;44209;52.952;6.790;2023-11-21T09:28:43;8.60;99.90
58413;DHT22;44209;52.952;6.790;2023-11-21T09:31:12;8.60;99.90
58413;DHT22;44209;52.952;6.790;2023-11-21T09:33:40;8.60;99.90
58413;DHT22;44209;52.952;6.790;2023-11-21T09:36:10;8.60;99.90
58413;DHT22;44209;52.952;6.790;2023-11-21T09:38:36;8.50;99.90
58413;DHT22;44209;52.952;6.790;2023-11-21T09:41:02;8.50;99.90
58413;DHT22;44209;52.952;6.790;2023-11-21T09:43:30;8.50;99.90
58413;DHT22;44209;52.952;6.790;2023-11-21T09:46:00;8.50;99.90
58413;DHT22;44209;52.952;6.790;2023-11-21T09:48:27;8.50;99.90
58413;DHT22;44209;52.952;6.790;2023-11-21T09:50:54;8.50;99.90
58413;DHT22;44209;52.952;6.790;2023-11-21T09:53:21;8.50;99.90
58413;DHT22;44209;52.952;6.790;2023-11-21T09:55:51;8.50;99.90
58413;DHT22;44209;52.952;6.790;2023-11-21T09:58:18;8.50;99.90
58413;DHT22;44209;52.952;6.790;2023-11-21T10:00:46;8.50;99.90
58413;DHT22;44209;52.952;6.790;2023-11-21T10:03:13;8.50;99.90
58413;DHT22;44209;52.952;6.790;2023-11-21T10:05:39;8.50;99.90
58413;DHT22;44209;52.952;6.790;2023-11-21T10:08:10;8.50;99.90
58413;DHT22;44209;52.952;6.790;2023-11-21T10:10:38;8.50;99.90
58413;DHT22;44209;52.952;6.790;2023-11-21T10:13:11;8.50;99.90
58413;DHT22;44209;52.952;6.790;2023-11-21T10:15:38;8.50;99.90
58413;DHT22;44209;52.952;6.790;2023-11-21T10:18:04;8.50;99.90
58413;DHT22;44209;52.952;6.790;2023-11-21T10:20:34;8.50;99.90
58413;DHT22;44209;52.952;6.790;2023-11-21T10:23:03;8.50;99.90
58413;DHT22;44209;52.952;6.790;2023-11-21T10:25:30;8.40;99.90
58413;DHT22;44209;52.952;6.790;2023-11-21T10:28:02;8.40;99.90
58413;DHT22;44209;52.952;6.790;2023-11-21T10:30:33;8.40;99.90
58413;DHT22;44209;52.952;6.790;2023-11-21T10:33:02;8.40;99.90
58413;DHT22;44209;52.952;6.790;2023-11-21T10:35:48;8.40;99.90
58413;DHT22;44209;52.952;6.790;2023-11-21T10:38:17;8.40;99.90
58413;DHT22;44209;52.952;6.790;2023-11-21T10:40:43;8.40;99.90
58413;DHT22;44209;52.952;6.790;2023-11-21T10:43:10;8.50;99.90
58413;DHT22;44209;52.952;6.790;2023-11-21T10:45:37;8.50;99.90
58413;DHT22;44209;52.952;6.790;2023-11-21T10:48:07;8.60;99.90
58413;DHT22;44209;52.952;6.790;2023-11-21T10:50:43;8.60;99.90
58413;DHT22;44209;52.952;6.790;2023-11-21T10:53:09;8.60;99.90
58413;DHT22;44209;52.952;6.790;2023-11-21T10:55:37;8.60;99.90
58413;DHT22;44209;52.952;6.790;2023-11-21T10:58:04;8.60;99.90
58413;DHT22;44209;52.952;6.790;2023-11-21T11:00:33;8.60;99.90
58413;DHT22;44209;52.952;6.790;2023-11-21T11:03:00;8.60;99.90
58413;DHT22;44209;52.952;6.790;2023-11-21T11:05:27;8.60;99.90
58413;DHT22;44209;52.952;6.790;2023-11-21T11:08:08;8.50;99.90
58413;DHT22;44209;52.952;6.790;2023-11-21T11:10:34;8.40;99.90
58413;DHT22;44209;52.952;6.790;2023-11-21T11:13:00;8.40;99.90
58413;DHT22;44209;52.952;6.790;2023-11-21T11:15:27;8.40;99.90
58413;DHT22;44209;52.952;6.790;2023-11-21T11:17:53;8.40;99.90
58413;DHT22;44209;52.952;6.790;2023-11-21T11:20:34;8.40;99.90
58413;DHT22;44209;52.952;6.790;2023-11-21T11:31:55;8.50;99.90
58413;DHT22;44209;52.952;6.790;2023-11-21T11:34:29;8.50;99.90
58413;DHT22;44209;52.952;6.790;2023-11-21T11:37:06;8.60;99.90
58413;DHT22;44209;52.952;6.790;2023-11-21T11:39:39;8.70;99.90
58413;DHT22;44209;52.952;6.790;2023-11-21T11:42:11;8.80;99.90
58413;DHT22;44209;52.952;6.790;2023-11-21T11:50:17;8.80;99.90
58413;DHT22;44209;52.952;6.790;2023-11-21T11:52:45;8.80;99.90
58413;DHT22;44209;52.952;6.790;2023-11-21T11:55:13;8.80;99.90
58413;DHT22;44209;52.952;6.790;2023-11-21T11:57:40;8.80;99.90
58413;DHT22;44209;52.952;6.790;2023-11-21T12:00:17;8.80;99.90
58413;DHT22;44209;52.952;6.790;2023-11-21T12:02:51;8.80;99.90
58413;DHT22;44209;52.952;6.790;2023-11-21T12:05:21;8.80;99.90
58413;DHT22;44209;52.952;6.790;2023-11-21T12:10:17;8.70;99.90
58413;DHT22;44209;52.952;6.790;2023-11-21T12:12:47;8.70;99.90
58413;DHT22;44209;52.952;6.790;2023-11-21T12:15:13;8.70;99.90
58413;DHT22;44209;52.952;6.790;2023-11-21T12:17:41;8.70;99.90
58413;DHT22;44209;52.952;6.790;2023-11-21T12:20:07;8.60;99.90
58413;DHT22;44209;52.952;6.790;2023-11-21T12:22:51;8.60;99.90
58413;DHT22;44209;52.952;6.790;2023-11-21T12:25:24;8.60;99.90
58413;DHT22;44209;52.952;6.790;2023-11-21T12:27:53;8.60;99.90
58413;DHT22;44209;52.952;6.790;2023-11-21T12:30:22;8.60;99.90
58413;DHT22;44209;52.952;6.790;2023-11-21T12:32:52;8.50;99.90
58413;DHT22;44209;52.952;6.790;2023-11-21T12:35:19;8.50;99.90
58413;DHT22;44209;52.952;6.790;2023-11-21T12:37:47;8.50;99.90
58413;DHT22;44209;52.952;6.790;2023-11-21T12:40:13;8.50;99.90
58413;DHT22;44209;52.952;6.790;2023-11-21T12:42:57;8.40;99.90
58413;DHT22;44209;52.952;6.790;2023-11-21T12:45:24;8.50;99.90
58413;DHT22;44209;52.952;6.790;2023-11-21T12:48:02;8.40;99.90
58413;DHT22;44209;52.952;6.790;2023-11-21T12:50:33;8.40;99.90
58413;DHT22;44209;52.952;6.790;2023-11-21T12:53:04;8.50;99.90
58413;DHT22;44209;52.952;6.790;2023-11-21T12:55:34;8.50;99.90
58413;DHT22;44209;52.952;6.790;2023-11-21T12:58:07;8.50;99.90
58413;DHT22;44209;52.952;6.790;2023-11-21T13:00:44;8.60;99.90
58413;DHT22;44209;52.952;6.790;2023-11-21T13:03:11;8.60;99.90
58413;DHT22;44209;52.952;6.790;2023-11-21T13:05:41;8.70;99.90
58413;DHT22;44209;52.952;6.790;2023-11-21T13:08:11;8.70;99.90
58413;DHT22;44209;52.952;6.790;2023-11-21T13:10:40;8.60;99.90
58413;DHT22;44209;52.952;6.790;2023-11-21T13:13:09;8.70;99.90
58413;DHT22;44209;52.952;6.790;2023-11-21T13:15:39;8.50;99.90
58413;DHT22;44209;52.952;6.790;2023-11-21T13:18:06;8.50;99.90
58413;DHT22;44209;52.952;6.790;2023-11-21T13:20:32;8.50;99.90
58413;DHT22;44209;52.952;6.790;2023-11-21T13:22:58;8.40;99.90
58413;DHT22;44209;52.952;6.790;2023-11-21T13:25:30;8.50;99.90
58413;DHT22;44209;52.952;6.790;2023-11-21T13:28:00;8.50;99.90
58413;DHT22;44209;52.952;6.790;2023-11-21T13:30:28;8.50;99.90
58413;DHT22;44209;52.952;6.790;2023-11-21T13:33:01;8.60;99.90
58413;DHT22;44209;52.952;6.790;2023-11-21T13:35:37;8.70;99.90
58413;DHT22;44209;52.952;6.790;2023-11-21T13:38:11;8.70;99.90
58413;DHT22;44209;52.952;6.790;2023-11-21T13:40:39;8.70;99.90
58413;DHT22;44209;52.952;6.790;2023-11-21T13:43:10;8.80;99.90
58413;DHT22;44209;52.952;6.790;2023-11-21T13:45:40;8.70;99.90
58413;DHT22;44209;52.952;6.790;2023-11-21T13:48:07;8.70;99.90
58413;DHT22;44209;52.952;6.790;2023-11-21T13:50:36;8.70;99.90
58413;DHT22;44209;52.952;6.790;2023-11-21T13:53:03;8.70;99.90
58413;DHT22;44209;52.952;6.790;2023-11-21T13:55:36;8.70;99.90
58413;DHT22;44209;52.952;6.790;2023-11-21T13:58:03;8.60;99.90
58413;DHT22;44209;52.952;6.790;2023-11-21T14:00:30;8.50;99.90
58413;DHT22;44209;52.952;6.790;2023-11-21T14:03:22;8.50;99.90
58413;DHT22;44209;52.952;6.790;2023-11-21T14:05:58;8.50;99.90
58413;DHT22;44209;52.952;6.790;2023-11-21T14:08:26;8.50;99.90
58413;DHT22;44209;52.952;6.790;2023-11-21T14:10:57;8.40;99.90
58413;DHT22;44209;52.952;6.790;2023-11-21T14:13:26;8.40;99.90
58413;DHT22;44209;52.952;6.790;2023-11-21T14:15:53;8.40;99.90
58413;DHT22;44209;52.952;6.790;2023-11-21T14:18:26;8.40;99.90
58413;DHT22;44209;52.952;6.790;2023-11-21T14:21:16;8.40;99.90
58413;DHT22;44209;52.952;6.790;2023-11-21T14:23:42;8.40;99.90
58413;DHT22;44209;52.952;6.790;2023-11-21T14:26:08;8.40;99.90
58413;DHT22;44209;52.952;6.790;2023-11-21T14:28:34;8.30;99.90
58413;DHT22;44209;52.952;6.790;2023-11-21T14:31:01;8.30;99.90
58413;DHT22;44209;52.952;6.790;2023-11-21T14:33:28;8.30;99.90
58413;DHT22;44209;52.952;6.790;2023-11-21T14:35:54;8.30;99.90
58413;DHT22;44209;52.952;6.790;2023-11-21T14:38:20;8.20;99.90
58413;DHT22;44209;52.952;6.790;2023-11-21T14:40:48;8.30;99.90
58413;DHT22;44209;52.952;6.790;2023-11-21T14:43:25;8.30;99.90
58413;DHT22;44209;52.952;6.790;2023-11-21T14:45:57;8.20;99.90
58413;DHT22;44209;52.952;6.790;2023-11-21T14:48:24;8.20;99.90
58413;DHT22;44209;52.952;6.790;2023-11-21T14:51:09;8.20;99.90
58413;DHT22;44209;52.952;6.790;2023-11-21T14:53:58;8.20;99.90
58413;DHT22;44209;52.952;6.790;2023-11-21T15:00:56;8.20;99.90
58413;DHT22;44209;52.952;6.790;2023-11-21T15:11:07;8.20;99.90
58413;DHT22;44209;52.952;6.790;2023-11-21T15:13:40;8.10;99.90
58413;DHT22;44209;52.952;6.790;2023-11-21T15:16:07;8.10;99.90
58413;DHT22;44209;52.952;6.790;2023-11-21T15:18:34;8.10;99.90
58413;DHT22;44209;52.952;6.790;2023-11-21T15:21:01;8.10;99.90
58413;DHT22;44209;52.952;6.790;2023-11-21T15:23:29;8.00;99.90
58413;DHT22;44209;52.952;6.790;2023-11-21T15:25:57;8.00;99.90
58413;DHT22;44209;52.952;6.790;2023-11-21T15:28:23;8.00;99.90
58413;DHT22;44209;52.952;6.790;2023-11-21T15:30:50;8.00;99.90
58413;DHT22;44209;52.952;6.790;2023-11-21T15:33:17;8.00;99.90
58413;DHT22;44209;52.952;6.790;2023-11-21T15:35:43;8.00;99.90
58413;DHT22;44209;52.952;6.790;2023-11-21T15:38:09;8.00;99.90
58413;DHT22;44209;52.952;6.790;2023-11-21T15:40:35;7.90;99.90
58413;DHT22;44209;52.952;6.790;2023-11-21T15:43:01;7.90;99.90
58413;DHT22;44209;52.952;6.790;2023-11-21T15:45:29;7.90;99.90
58413;DHT22;44209;52.952;6.790;2023-11-21T15:47:54;7.90;99.90
58413;DHT22;44209;52.952;6.790;2023-11-21T15:50:22;7.80;99.90
58413;DHT22;44209;52.952;6.790;2023-11-21T15:52:48;7.70;99.90
58413;DHT22;44209;52.952;6.790;2023-11-21T15:55:13;7.70;99.90
58413;DHT22;44209;52.952;6.790;2023-11-21T15:57:39;7.70;99.90
58413;DHT22;44209;52.952;6.790;2023-11-21T16:00:06;7.60;99.90
58413;DHT22;44209;52.952;6.790;2023-11-21T16:02:42;7.60;99.90
58413;DHT22;44209;52.952;6.790;2023-11-21T16:05:08;7.60;99.90
58413;DHT22;44209;52.952;6.790;2023-11-21T16:07:34;7.50;99.90
58413;DHT22;44209;52.952;6.790;2023-11-21T16:10:02;7.50;99.90
58413;DHT22;44209;52.952;6.790;2023-11-21T16:12:28;7.50;99.90
58413;DHT22;44209;52.952;6.790;2023-11-21T16:14:53;7.50;99.90
58413;DHT22;44209;52.952;6.790;2023-11-21T16:17:19;7.40;99.90
58413;DHT22;44209;52.952;6.790;2023-11-21T16:19:47;7.40;99.90
58413;DHT22;44209;52.952;6.790;2023-11-21T16:22:13;7.30;99.90
58413;DHT22;44209;52.952;6.790;2023-11-21T16:24:39;7.30;99.90
58413;DHT22;44209;52.952;6.790;2023-11-21T16:27:05;7.20;99.90
58413;DHT22;44209;52.952;6.790;2023-11-21T16:29:35;7.20;99.90
58413;DHT22;44209;52.952;6.790;2023-11-21T16:32:01;7.10;99.90
58413;DHT22;44209;52.952;6.790;2023-11-21T16:34:27;7.10;99.90
58413;DHT22;44209;52.952;6.790;2023-11-21T16:36:54;7.00;99.90
58413;DHT22;44209;52.952;6.790;2023-11-21T16:39:21;7.00;99.90
58413;DHT22;44209;52.952;6.790;2023-11-21T16:41:47;6.90;99.90
58413;DHT22;44209;52.952;6.790;2023-11-21T16:44:18;6.90;99.90
58413;DHT22;44209;52.952;6.790;2023-11-21T16:46:48;6.90;99.90
58413;DHT22;44209;52.952;6.790;2023-11-21T16:49:16;6.90;99.90
58413;DHT22;44209;52.952;6.790;2023-11-21T16:51:42;6.80;99.90
58413;DHT22;44209;52.952;6.790;2023-11-21T16:54:08;6.80;99.90
58413;DHT22;44209;52.952;6.790;2023-11-21T16:56:34;6.70;99.90
58413;DHT22;44209;52.952;6.790;2023-11-21T16:59:01;6.60;99.90
58413;DHT22;44209;52.952;6.790;2023-11-21T17:01:27;6.60;99.90
58413;DHT22;44209;52.952;6.790;2023-11-21T17:03:55;6.60;99.90
58413;DHT22;44209;52.952;6.790;2023-11-21T17:06:24;6.60;99.90
58413;DHT22;44209;52.952;6.790;2023-11-21T17:08:52;6.50;99.90
58413;DHT22;44209;52.952;6.790;2023-11-21T17:11:18;6.50;99.90
58413;DHT22;44209;52.952;6.790;2023-11-21T17:13:44;6.50;99.90
58413;DHT22;44209;52.952;6.790;2023-11-21T17:16:09;6.50;99.90
58413;DHT22;44209;52.952;6.790;2023-11-21T17:18:35;6.40;99.90
58413;DHT22;44209;52.952;6.790;2023-11-21T17:21:01;6.40;99.90
58413;DHT22;44209;52.952;6.790;2023-11-21T17:23:27;6.40;99.90
58413;DHT22;44209;52.952;6.790;2023-11-21T17:25:54;6.50;99.90
58413;DHT22;44209;52.952;6.790;2023-11-21T17:28:20;6.50;99.90
58413;DHT22;44209;52.952;6.790;2023-11-21T17:30:46;6.50;99.90
58413;DHT22;44209;52.952;6.790;2023-11-21T17:33:11;6.50;99.90
58413;DHT22;44209;52.952;6.790;2023-11-21T17:35:39;6.60;99.90
58413;DHT22;44209;52.952;6.790;2023-11-21T17:38:05;6.50;99.90
58413;DHT22;44209;52.952;6.790;2023-11-21T17:40:30;6.50;99.90